Time;durP1;ratioP1;P1;durP2;ratioP2;P2;SDS_P1;SDS_P2;PMS_P1;PMS_P2;Temp;Humidity;BMP_temperature;BMP_pressure;BME280_temperature;BME280_humidity;BME280_pressure;Samples;Min_cycle;Max_cycle;Signal;HPM_P1;HPM_P2
2021/05/21 00:01:16;;;;;;;4.40;1.00;;;11.60;99.90;;;;;;5012459;28;20193;-69
2021/05/21 00:03:42;;;;;;;1.30;0.30;;;11.50;99.90;;;;;;5012298;28;20262;-69
2021/05/21 00:06:09;;;;;;;2.43;1.03;;;11.30;99.90;;;;;;5002613;28;20197;-69
2021/05/21 00:08:35;;;;;;;1.53;1.13;;;11.20;99.90;;;;;;4999569;28;20268;-71
2021/05/21 00:11:02;;;;;;;0.23;0.20;;;11.00;99.90;;;;;;4997728;28;20214;-70
2021/05/21 00:13:28;;;;;;;0.00;0.00;;;11.00;99.90;;;;;;4999630;28;20216;-69
2021/05/21 00:15:55;;;;;;;0.00;0.00;;;10.90;99.90;;;;;;5009013;28;20715;-69
2021/05/21 00:18:22;;;;;;;0.00;0.00;;;10.90;99.90;;;;;;5006459;28;20614;-69
2021/05/21 00:20:49;;;;;;;0.30;0.20;;;10.90;99.90;;;;;;5006970;28;20201;-69
2021/05/21 00:23:16;;;;;;;0.00;0.00;;;10.90;99.90;;;;;;5007757;28;20651;-68
2021/05/21 00:25:42;;;;;;;14.87;1.90;;;10.90;99.90;;;;;;5008247;28;20228;-69
2021/05/21 00:28:09;;;;;;;0.13;0.13;;;11.00;99.90;;;;;;5008401;28;20201;-69
2021/05/21 00:30:35;;;;;;;0.00;0.00;;;11.00;99.90;;;;;;5009193;28;20597;-72
2021/05/21 00:33:02;;;;;;;0.03;0.03;;;11.10;99.90;;;;;;5008413;28;20205;-69
2021/05/21 00:35:29;;;;;;;1.23;1.23;;;11.10;99.90;;;;;;4993527;28;21191;-71
2021/05/21 00:37:56;;;;;;;0.00;0.00;;;11.20;99.90;;;;;;5006934;28;20260;-70
2021/05/21 00:40:22;;;;;;;0.53;0.53;;;11.20;99.90;;;;;;4995236;28;20214;-69
2021/05/21 00:42:49;;;;;;;0.50;0.43;;;11.20;99.90;;;;;;5003872;28;20209;-69
2021/05/21 00:45:15;;;;;;;0.73;0.33;;;11.30;99.90;;;;;;5001758;28;20208;-69
2021/05/21 00:47:42;;;;;;;1.73;0.70;;;11.30;99.90;;;;;;5005201;28;20220;-68
2021/05/21 00:50:10;;;;;;;1.00;0.87;;;11.30;99.90;;;;;;5001860;28;20202;-69
2021/05/21 00:52:41;;;;;;;0.40;0.20;;;11.40;99.90;;;;;;4997025;28;20202;-70
2021/05/21 00:55:09;;;;;;;0.10;0.00;;;11.40;99.90;;;;;;5005700;28;21018;-69
2021/05/21 00:57:36;;;;;;;0.00;0.00;;;11.40;99.90;;;;;;5003023;28;20212;-68
2021/05/21 01:00:04;;;;;;;0.00;0.00;;;11.50;99.90;;;;;;5000730;28;20603;-69
2021/05/21 01:02:30;;;;;;;0.77;0.77;;;11.50;99.90;;;;;;5003211;28;20208;-69
2021/05/21 01:04:57;;;;;;;0.00;0.00;;;11.40;99.90;;;;;;5004266;28;20893;-70
2021/05/21 01:07:23;;;;;;;0.00;0.00;;;11.40;99.90;;;;;;5000763;28;20208;-69
2021/05/21 01:09:52;;;;;;;0.53;0.47;;;11.30;99.90;;;;;;5006338;28;20651;-69
2021/05/21 01:12:18;;;;;;;0.00;0.00;;;11.20;99.90;;;;;;5000737;28;20663;-70
2021/05/21 01:14:48;;;;;;;0.47;0.47;;;11.10;99.90;;;;;;5003672;28;20740;-68
2021/05/21 01:17:15;;;;;;;1.80;0.87;;;11.00;99.90;;;;;;5000958;28;20233;-68
2021/05/21 01:19:42;;;;;;;0.13;0.13;;;11.00;99.90;;;;;;5001639;28;20717;-68
2021/05/21 01:22:10;;;;;;;1.60;0.60;;;10.90;99.90;;;;;;5006698;28;20209;-68
2021/05/21 01:24:37;;;;;;;0.00;0.00;;;10.90;99.90;;;;;;5005973;28;20243;-68
2021/05/21 01:27:05;;;;;;;0.00;0.00;;;10.80;99.90;;;;;;5004920;28;20204;-68
2021/05/21 01:29:31;;;;;;;0.07;0.07;;;10.80;99.90;;;;;;5004342;28;20289;-68
2021/05/21 01:31:58;;;;;;;2.23;0.43;;;10.70;99.90;;;;;;5005255;28;20599;-69
2021/05/21 01:34:25;;;;;;;0.00;0.00;;;10.70;99.90;;;;;;5002259;28;20206;-68
2021/05/21 01:36:52;;;;;;;0.30;0.30;;;10.70;99.90;;;;;;5002259;28;20267;-69
2021/05/21 01:39:19;;;;;;;0.23;0.23;;;10.60;99.90;;;;;;5001857;28;20205;-68
2021/05/21 01:41:46;;;;;;;0.43;0.17;;;10.60;99.90;;;;;;5004090;28;20263;-68
2021/05/21 01:44:14;;;;;;;0.00;0.00;;;10.60;99.90;;;;;;4999894;28;20211;-69
2021/05/21 01:46:42;;;;;;;1.30;0.30;;;10.60;99.90;;;;;;5003265;28;20205;-70
2021/05/21 01:49:08;;;;;;;0.93;0.93;;;10.50;99.90;;;;;;5004869;28;20208;-68
2021/05/21 01:51:49;;;;;;;0.00;0.00;;;10.50;99.90;;;;;;5004573;28;20201;-68
2021/05/21 01:54:17;;;;;;;0.03;0.00;;;10.40;99.90;;;;;;5001608;28;20205;-68
2021/05/21 01:56:47;;;;;;;0.57;0.53;;;10.40;99.90;;;;;;5003402;28;20232;-71
2021/05/21 01:59:14;;;;;;;0.43;0.23;;;10.40;99.90;;;;;;5003993;28;20197;-68
2021/05/21 02:01:41;;;;;;;0.57;0.40;;;10.40;99.90;;;;;;5002723;28;20758;-68
2021/05/21 02:04:07;;;;;;;1.93;0.73;;;10.40;99.90;;;;;;5005184;28;20196;-69
2021/05/21 02:06:35;;;;;;;0.20;0.20;;;10.30;99.90;;;;;;5004217;28;20205;-69
2021/05/21 02:09:02;;;;;;;0.90;0.90;;;10.30;99.90;;;;;;5001216;28;20746;-68
2021/05/21 02:11:29;;;;;;;0.10;0.10;;;10.30;99.90;;;;;;5006538;28;20601;-68
2021/05/21 02:13:56;;;;;;;3.00;1.30;;;10.30;99.90;;;;;;4997360;28;20205;-69
2021/05/21 02:16:23;;;;;;;0.00;0.00;;;10.30;99.90;;;;;;5003139;28;20679;-68
2021/05/21 02:18:49;;;;;;;0.03;0.03;;;10.20;99.90;;;;;;4997153;28;20209;-68
2021/05/21 02:21:15;;;;;;;0.00;0.00;;;10.20;99.90;;;;;;5005214;28;20197;-68
2021/05/21 02:23:42;;;;;;;1.80;0.70;;;10.30;99.90;;;;;;5002265;28;20243;-70
2021/05/21 02:26:08;;;;;;;4.87;0.80;;;10.30;99.90;;;;;;5003559;28;20205;-69
2021/05/21 02:28:35;;;;;;;0.00;0.00;;;10.40;99.90;;;;;;4997549;28;20237;-69
2021/05/21 02:31:02;;;;;;;1.43;0.87;;;10.40;99.90;;;;;;5006243;28;20232;-70
2021/05/21 02:33:29;;;;;;;0.90;0.87;;;10.50;99.90;;;;;;4996376;28;20205;-70
2021/05/21 02:35:56;;;;;;;1.13;1.03;;;10.50;99.90;;;;;;4992061;28;20236;-68
2021/05/21 02:38:22;;;;;;;0.00;0.00;;;10.50;99.90;;;;;;5002680;28;20652;-68
2021/05/21 02:40:49;;;;;;;0.57;0.30;;;10.50;99.90;;;;;;4998945;28;20209;-69
2021/05/21 02:43:15;;;;;;;2.30;1.17;;;10.50;99.90;;;;;;5002747;28;20208;-69
2021/05/21 02:45:41;;;;;;;0.30;0.07;;;10.50;99.90;;;;;;5003830;28;20702;-68
2021/05/21 02:48:09;;;;;;;4.70;0.37;;;10.50;99.90;;;;;;5003050;28;20271;-71
2021/05/21 02:50:35;;;;;;;3.67;0.37;;;10.50;99.90;;;;;;5006245;28;20255;-68
2021/05/21 02:53:02;;;;;;;0.50;0.33;;;10.50;99.90;;;;;;4995467;28;20235;-68
2021/05/21 02:55:28;;;;;;;3.90;2.83;;;10.60;99.90;;;;;;5001350;28;20302;-69
2021/05/21 02:57:55;;;;;;;0.10;0.10;;;10.60;99.90;;;;;;5007175;28;20205;-68
2021/05/21 03:00:21;;;;;;;1.20;0.53;;;10.60;99.90;;;;;;4999899;28;20213;-68
2021/05/21 03:02:47;;;;;;;5.70;0.83;;;10.70;99.90;;;;;;4994357;28;20205;-69
2021/05/21 03:05:20;;;;;;;0.20;0.20;;;10.70;99.90;;;;;;5005919;28;20204;-68
2021/05/21 03:07:51;;;;;;;1.67;0.50;;;10.70;99.90;;;;;;4995312;28;20707;-68
2021/05/21 03:10:17;;;;;;;7.97;0.47;;;10.80;99.90;;;;;;4992240;28;20280;-70
2021/05/21 03:12:44;;;;;;;2.33;0.97;;;10.90;99.90;;;;;;4993619;28;20602;-68
2021/05/21 03:15:12;;;;;;;1.40;0.43;;;10.80;99.90;;;;;;4993228;28;20259;-68
2021/05/21 03:17:38;;;;;;;0.23;0.10;;;10.80;99.90;;;;;;5001157;28;20213;-70
2021/05/21 03:20:06;;;;;;;1.00;0.93;;;10.90;99.90;;;;;;5004020;28;20240;-68
2021/05/21 03:22:34;;;;;;;1.10;1.00;;;10.90;99.90;;;;;;5008412;28;20788;-68
2021/05/21 03:25:03;;;;;;;0.10;0.10;;;10.90;99.90;;;;;;5006182;28;20205;-72
2021/05/21 03:27:30;;;;;;;1.93;0.90;;;10.90;99.90;;;;;;5010750;28;20516;-67
2021/05/21 03:29:56;;;;;;;1.30;0.83;;;10.90;99.90;;;;;;4997698;28;20214;-68
2021/05/21 03:32:23;;;;;;;0.00;0.00;;;10.90;99.90;;;;;;4997048;28;20212;-67
2021/05/21 03:34:49;;;;;;;5.77;0.53;;;10.90;99.90;;;;;;5004140;28;20213;-68
2021/05/21 03:37:16;;;;;;;4.50;1.63;;;10.80;99.90;;;;;;5006981;28;20230;-68
2021/05/21 03:39:43;;;;;;;0.00;0.00;;;10.80;99.90;;;;;;5008599;28;20204;-68
2021/05/21 03:42:10;;;;;;;2.97;0.70;;;10.70;99.90;;;;;;5005329;28;20637;-69
2021/05/21 03:44:37;;;;;;;0.30;0.30;;;10.70;99.90;;;;;;5007362;28;20201;-69
2021/05/21 03:47:03;;;;;;;0.33;0.33;;;10.70;99.90;;;;;;5000818;28;20292;-68
2021/05/21 03:49:30;;;;;;;1.50;0.33;;;10.70;99.90;;;;;;4999491;28;21252;-75
2021/05/21 03:51:57;;;;;;;7.17;0.57;;;10.70;99.90;;;;;;5004329;28;20209;-71
2021/05/21 03:54:24;;;;;;;0.47;0.47;;;10.80;99.90;;;;;;4998390;28;20217;-68
2021/05/21 03:56:52;;;;;;;0.67;0.23;;;10.90;99.90;;;;;;4997912;28;20259;-68
2021/05/21 03:59:19;;;;;;;0.50;0.50;;;11.00;99.90;;;;;;4994085;28;20198;-68
2021/05/21 04:01:46;;;;;;;0.60;0.40;;;11.00;99.90;;;;;;5007351;28;20669;-70
2021/05/21 04:04:13;;;;;;;1.20;0.53;;;11.10;99.90;;;;;;5005297;28;20201;-67
2021/05/21 04:06:40;;;;;;;1.57;0.57;;;11.20;99.90;;;;;;5004507;28;20259;-68
2021/05/21 04:09:07;;;;;;;5.33;0.73;;;11.20;99.90;;;;;;4996815;28;20552;-68
2021/05/21 04:11:34;;;;;;;5.10;0.80;;;11.30;99.90;;;;;;5002548;28;20655;-68
2021/05/21 04:14:01;;;;;;;2.00;0.97;;;11.20;99.90;;;;;;5006514;28;20237;-69
2021/05/21 04:16:27;;;;;;;6.80;0.87;;;11.20;99.90;;;;;;5001322;28;20221;-69
2021/05/21 04:18:54;;;;;;;2.53;0.90;;;11.20;99.90;;;;;;5010767;28;20252;-71
2021/05/21 04:21:21;;;;;;;0.67;0.67;;;11.10;99.90;;;;;;4998522;28;20209;-68
2021/05/21 04:23:48;;;;;;;2.77;1.53;;;11.20;99.90;;;;;;5005604;28;20236;-70
2021/05/21 04:26:15;;;;;;;2.07;1.10;;;11.10;99.90;;;;;;5003503;28;20205;-68
2021/05/21 04:28:41;;;;;;;3.37;1.93;;;11.20;99.90;;;;;;5000917;28;20209;-68
2021/05/21 04:31:09;;;;;;;9.97;1.63;;;11.30;99.90;;;;;;4998439;28;20812;-68
2021/05/21 04:33:35;;;;;;;0.47;0.37;;;11.40;99.90;;;;;;5000579;28;20212;-68
2021/05/21 04:36:02;;;;;;;3.07;0.93;;;11.40;99.90;;;;;;5001722;28;20225;-68
2021/05/21 04:38:28;;;;;;;3.40;0.90;;;11.50;99.90;;;;;;5001299;28;20208;-67
2021/05/21 04:40:55;;;;;;;2.40;0.60;;;11.50;99.90;;;;;;4999657;28;20895;-67
2021/05/21 04:43:25;;;;;;;3.20;0.80;;;11.50;99.90;;;;;;5006655;28;20654;-68
2021/05/21 04:45:52;;;;;;;6.30;0.60;;;11.50;99.90;;;;;;5003763;28;20208;-67
2021/05/21 04:48:19;;;;;;;3.23;0.67;;;11.50;99.90;;;;;;5007456;28;20204;-67
2021/05/21 04:50:46;;;;;;;2.10;0.87;;;11.40;99.90;;;;;;5004126;28;20201;-69
2021/05/21 04:53:12;;;;;;;0.30;0.27;;;11.30;99.90;;;;;;4999044;28;20216;-72
2021/05/21 04:55:40;;;;;;;3.20;0.77;;;11.30;99.90;;;;;;5007417;28;20275;-68
2021/05/21 04:58:07;;;;;;;1.23;1.13;;;11.30;99.90;;;;;;4993303;28;20225;-68
2021/05/21 05:00:33;;;;;;;0.27;0.27;;;11.40;99.90;;;;;;5002240;28;20205;-68
2021/05/21 05:03:04;;;;;;;0.67;0.10;;;11.40;99.90;;;;;;4997568;28;21036;-70
2021/05/21 05:05:32;;;;;;;8.13;1.70;;;11.50;99.90;;;;;;4996885;28;20213;-70
2021/05/21 05:07:58;;;;;;;0.40;0.40;;;11.60;99.90;;;;;;5003399;28;20580;-68
2021/05/21 05:10:25;;;;;;;7.47;1.90;;;11.60;99.90;;;;;;5006282;28;20564;-70
2021/05/21 05:12:52;;;;;;;6.10;0.77;;;11.70;99.90;;;;;;4994325;28;20201;-68
2021/05/21 05:15:19;;;;;;;0.53;0.30;;;11.80;99.90;;;;;;5009049;28;20291;-67
2021/05/21 05:17:48;;;;;;;1.07;0.40;;;11.90;99.90;;;;;;4992892;28;20204;-68
2021/05/21 05:20:15;;;;;;;2.90;1.03;;;12.00;99.90;;;;;;4998402;28;20254;-67
2021/05/21 05:22:42;;;;;;;3.70;1.40;;;12.00;99.90;;;;;;5005343;28;20294;-68
2021/05/21 05:25:10;;;;;;;0.70;0.50;;;12.00;99.90;;;;;;4998042;28;20233;-68
2021/05/21 05:27:37;;;;;;;5.53;1.83;;;12.00;99.90;;;;;;5004015;28;20213;-67
2021/05/21 05:30:05;;;;;;;0.53;0.50;;;12.10;99.90;;;;;;4999497;28;20274;-68
2021/05/21 05:32:31;;;;;;;5.07;1.27;;;12.20;99.90;;;;;;5009160;28;20201;-70
2021/05/21 05:34:58;;;;;;;3.53;0.70;;;12.30;99.90;;;;;;4993383;28;20201;-70
2021/05/21 05:37:25;;;;;;;3.67;0.40;;;12.40;99.90;;;;;;5003500;28;20225;-72
2021/05/21 05:39:52;;;;;;;3.23;0.27;;;12.30;99.90;;;;;;5008408;28;20204;-70
2021/05/21 05:42:18;;;;;;;2.43;1.47;;;12.30;99.90;;;;;;4999873;28;20216;-70
2021/05/21 05:44:45;;;;;;;1.10;0.63;;;12.40;99.90;;;;;;5000645;28;20248;-68
2021/05/21 05:47:11;;;;;;;0.67;0.23;;;12.70;99.90;;;;;;5001082;28;20197;-69
2021/05/21 05:49:38;;;;;;;2.07;1.23;;;13.10;99.90;;;;;;5009435;28;20279;-67
2021/05/21 05:52:04;;;;;;;5.03;1.20;;;13.10;99.90;;;;;;4994273;28;20202;-68
2021/05/21 05:54:31;;;;;;;3.20;2.00;;;13.00;99.90;;;;;;4996193;28;20236;-70
2021/05/21 05:56:58;;;;;;;1.23;0.23;;;12.70;99.90;;;;;;5008940;28;20232;-71
2021/05/21 05:59:27;;;;;;;2.53;1.63;;;12.60;99.90;;;;;;4998425;28;20210;-68
2021/05/21 06:01:54;;;;;;;3.40;0.73;;;12.40;99.90;;;;;;4996941;28;20216;-71
2021/05/21 06:04:20;;;;;;;3.93;0.67;;;12.40;99.90;;;;;;4995563;28;20202;-69
2021/05/21 06:06:47;;;;;;;3.10;0.90;;;12.50;99.90;;;;;;4998733;28;20201;-68
2021/05/21 06:09:14;;;;;;;2.20;0.73;;;12.50;99.90;;;;;;5008798;28;20209;-68
2021/05/21 06:11:40;;;;;;;6.03;1.03;;;12.50;99.90;;;;;;4992555;28;20264;-68
2021/05/21 06:14:08;;;;;;;0.17;0.17;;;12.50;99.90;;;;;;5000329;28;20205;-68
2021/05/21 06:16:34;;;;;;;0.73;0.40;;;12.50;99.90;;;;;;5007865;28;20240;-70
2021/05/21 06:19:01;;;;;;;7.83;1.30;;;12.50;99.90;;;;;;5009990;28;20216;-68
2021/05/21 06:21:27;;;;;;;2.57;0.47;;;12.70;99.90;;;;;;5003070;28;20202;-68
2021/05/21 06:23:54;;;;;;;3.70;0.70;;;13.30;99.90;;;;;;4994577;28;20225;-72
2021/05/21 06:26:30;;;;;;;5.33;0.73;;;14.10;99.90;;;;;;5009724;28;20201;-68
2021/05/21 06:28:56;;;;;;;0.97;0.73;;;14.80;99.90;;;;;;4998079;28;20658;-69
2021/05/21 06:31:24;;;;;;;3.70;1.03;;;14.90;99.90;;;;;;5004471;28;20215;-72
2021/05/21 06:33:51;;;;;;;9.13;1.17;;;14.60;99.90;;;;;;5003650;28;20836;-69
2021/05/21 06:36:17;;;;;;;0.00;0.00;;;14.60;99.90;;;;;;5003507;28;20286;-71
2021/05/21 06:38:44;;;;;;;0.07;0.07;;;14.50;99.90;;;;;;5001145;28;20682;-68
2021/05/21 06:41:10;;;;;;;3.60;1.20;;;14.30;99.90;;;;;;5000425;28;20208;-70
2021/05/21 06:43:37;;;;;;;0.00;0.00;;;14.20;99.90;;;;;;5005598;28;20255;-69
2021/05/21 06:46:04;;;;;;;6.63;1.23;;;13.90;99.90;;;;;;4999216;28;20279;-68
2021/05/21 06:48:32;;;;;;;0.80;0.50;;;13.80;99.90;;;;;;5003635;28;20866;-70
2021/05/21 06:51:00;;;;;;;0.30;0.23;;;13.70;99.90;;;;;;5000064;28;20206;-68
2021/05/21 06:53:27;;;;;;;7.67;0.93;;;13.80;99.90;;;;;;5002683;28;20209;-68
2021/05/21 06:55:53;;;;;;;0.87;0.43;;;13.90;99.90;;;;;;5003519;28;20217;-69
2021/05/21 06:58:20;;;;;;;0.40;0.40;;;14.40;99.90;;;;;;5003999;28;20232;-70
2021/05/21 07:00:47;;;;;;;1.50;0.67;;;14.60;99.90;;;;;;5006393;28;20213;-70
2021/05/21 07:03:14;;;;;;;7.80;0.67;;;14.90;99.90;;;;;;5004605;28;20205;-70
2021/05/21 07:05:43;;;;;;;1.87;1.17;;;15.70;99.90;;;;;;5010216;28;20205;-71
2021/05/21 07:08:10;;;;;;;1.97;0.60;;;16.00;99.90;;;;;;5005239;28;20205;-70
2021/05/21 07:10:37;;;;;;;9.20;1.13;;;15.50;99.90;;;;;;5000283;28;20196;-70
2021/05/21 07:13:08;;;;;;;1.60;0.60;;;15.10;99.90;;;;;;5002719;28;20206;-69
2021/05/21 07:15:34;;;;;;;2.90;1.10;;;14.80;99.90;;;;;;5001117;28;20525;-68
2021/05/21 07:18:01;;;;;;;1.13;0.60;;;14.50;99.90;;;;;;5005819;28;20212;-70
2021/05/21 07:20:27;;;;;;;2.00;1.90;;;14.30;99.90;;;;;;5009468;28;20212;-69
2021/05/21 07:22:55;;;;;;;0.87;0.87;;;14.20;99.90;;;;;;5010126;28;20229;-68
2021/05/21 07:25:21;;;;;;;2.80;0.90;;;14.00;99.90;;;;;;5005911;28;20201;-68
2021/05/21 07:27:48;;;;;;;8.90;1.50;;;13.70;99.90;;;;;;5002207;28;20224;-67
2021/05/21 07:30:16;;;;;;;3.73;1.00;;;13.60;99.90;;;;;;5003899;28;20209;-70
2021/05/21 07:32:42;;;;;;;0.87;0.83;;;13.50;99.90;;;;;;5007203;28;20675;-69
2021/05/21 07:35:09;;;;;;;0.37;0.37;;;13.50;99.90;;;;;;5012442;28;20208;-69
2021/05/21 07:37:36;;;;;;;0.30;0.30;;;13.60;99.90;;;;;;5010126;28;20733;-69
2021/05/21 07:40:06;;;;;;;1.63;1.27;;;13.80;99.90;;;;;;5010682;28;20205;-70
2021/05/21 07:42:33;;;;;;;4.17;1.83;;;13.80;99.90;;;;;;5010343;28;20216;-69
2021/05/21 07:44:59;;;;;;;2.27;1.37;;;13.50;99.90;;;;;;5012223;28;20204;-69
2021/05/21 07:47:26;;;;;;;2.43;0.70;;;13.40;99.90;;;;;;5011214;28;20209;-70
2021/05/21 07:49:52;;;;;;;0.17;0.17;;;13.30;99.90;;;;;;5011638;28;20209;-70
2021/05/21 07:52:19;;;;;;;2.97;1.80;;;13.50;99.90;;;;;;5012214;28;20267;-71
2021/05/21 07:54:46;;;;;;;2.43;1.00;;;14.50;99.90;;;;;;5011088;28;20205;-70
2021/05/21 07:57:13;;;;;;;0.70;0.50;;;15.00;99.90;;;;;;5011021;28;20244;-70
2021/05/21 07:59:39;;;;;;;0.80;0.40;;;15.00;99.90;;;;;;5012438;28;20201;-68
2021/05/21 08:02:06;;;;;;;0.37;0.37;;;14.90;99.90;;;;;;5007992;28;20235;-68
2021/05/21 08:04:32;;;;;;;2.13;0.93;;;14.70;99.90;;;;;;5008295;28;20270;-69
2021/05/21 08:06:59;;;;;;;0.60;0.60;;;14.60;99.90;;;;;;5010275;28;20209;-69
2021/05/21 08:09:26;;;;;;;0.27;0.27;;;15.10;99.90;;;;;;5011400;28;20228;-69
2021/05/21 08:11:52;;;;;;;4.37;1.23;;;16.10;99.90;;;;;;5006408;28;20864;-70
2021/05/21 08:14:20;;;;;;;16.63;1.63;;;17.10;99.90;;;;;;5006937;28;20204;-70
2021/05/21 08:16:47;;;;;;;4.53;1.53;;;17.90;99.90;;;;;;5009021;28;20231;-67
2021/05/21 08:19:13;;;;;;;3.40;1.27;;;17.60;99.90;;;;;;5009732;28;20697;-70
2021/05/21 08:21:40;;;;;;;2.33;0.90;;;17.60;99.90;;;;;;5008772;28;20255;-69
2021/05/21 08:24:07;;;;;;;1.33;1.23;;;18.00;99.90;;;;;;5009211;28;20243;-69
2021/05/21 08:26:34;;;;;;;6.20;1.60;;;17.90;99.90;;;;;;5002753;28;20201;-71
2021/05/21 08:29:00;;;;;;;7.50;1.87;;;17.00;99.90;;;;;;5006929;28;20717;-69
2021/05/21 08:31:28;;;;;;;2.23;1.83;;;16.30;99.90;;;;;;5006953;28;20205;-69
2021/05/21 08:33:54;;;;;;;6.13;1.50;;;16.30;99.90;;;;;;5003385;28;20201;-71
2021/05/21 08:36:21;;;;;;;1.60;0.77;;;16.60;99.90;;;;;;5008910;28;20244;-68
2021/05/21 08:38:48;;;;;;;2.40;0.73;;;17.00;99.90;;;;;;5003611;28;20201;-68
2021/05/21 08:41:17;;;;;;;1.33;0.40;;;17.70;99.90;;;;;;5000000;28;20193;-68
2021/05/21 08:43:46;;;;;;;5.77;1.60;;;17.70;99.90;;;;;;4997843;28;20659;-67
2021/05/21 08:46:13;;;;;;;2.63;1.33;;;18.20;99.90;;;;;;5003637;28;20236;-71
2021/05/21 08:48:41;;;;;;;3.23;0.77;;;18.70;99.90;;;;;;5002079;28;20651;-68
2021/05/21 08:51:09;;;;;;;4.17;0.60;;;18.60;99.90;;;;;;4997999;28;20206;-69
2021/05/21 08:53:36;;;;;;;1.13;0.60;;;17.40;99.90;;;;;;5002535;28;20213;-69
2021/05/21 08:56:03;;;;;;;1.70;0.93;;;16.70;99.90;;;;;;5006937;28;20299;-69
2021/05/21 08:58:30;;;;;;;1.07;0.97;;;16.30;99.90;;;;;;5005496;28;20586;-69
2021/05/21 09:00:56;;;;;;;3.43;0.60;;;16.20;99.90;;;;;;5003867;28;20204;-68
2021/05/21 09:03:24;;;;;;;2.33;0.53;;;16.00;99.90;;;;;;5003982;28;20205;-70
2021/05/21 09:06:08;;;;;;;3.63;1.57;;;15.90;99.90;;;;;;5004339;28;20220;-69
2021/05/21 09:08:35;;;;;;;3.63;0.67;;;15.30;99.90;;;;;;4998613;28;21220;-69
2021/05/21 09:11:02;;;;;;;6.40;1.47;;;14.80;99.90;;;;;;5000913;28;20655;-68
2021/05/21 09:13:34;;;;;;;5.60;1.80;;;14.40;99.90;;;;;;4998744;28;20205;-69
2021/05/21 09:16:21;;;;;;;7.53;0.90;;;14.10;99.90;;;;;;5002450;28;20331;-68
2021/05/21 09:19:09;;;;;;;3.27;1.03;;;13.60;99.90;;;;;;5002730;28;21028;-70
2021/05/21 09:21:58;;;;;;;7.57;1.13;;;13.20;99.90;;;;;;5004809;28;20255;-72
2021/05/21 09:24:28;;;;;;;2.77;0.43;;;12.70;99.90;;;;;;5009633;28;20205;-73
2021/05/21 09:26:56;;;;;;;1.47;0.20;;;12.70;99.90;;;;;;5008900;28;20201;-65
2021/05/21 09:29:42;;;;;;;2.37;1.67;;;13.10;99.90;;;;;;4992270;28;20315;-71
2021/05/21 09:32:20;;;;;;;0.67;0.50;;;13.60;99.90;;;;;;5002462;28;20200;-70
2021/05/21 09:34:58;;;;;;;3.17;1.57;;;14.30;99.90;;;;;;5000561;28;20709;-69
2021/05/21 09:37:27;;;;;;;2.23;0.90;;;15.10;99.90;;;;;;4995547;28;20682;-69
2021/05/21 09:40:08;;;;;;;1.53;0.93;;;15.60;99.90;;;;;;4997868;28;20605;-70
2021/05/21 09:42:56;;;;;;;2.70;1.73;;;16.30;99.90;;;;;;4999690;28;20846;-68
2021/05/21 09:45:31;;;;;;;2.50;0.83;;;16.20;99.90;;;;;;4998074;28;20208;-69
2021/05/21 09:48:00;;;;;;;2.07;0.87;;;15.70;99.90;;;;;;4999670;28;20204;-68
2021/05/21 09:50:41;;;;;;;2.30;1.10;;;15.30;99.90;;;;;;5003175;28;20198;-67
2021/05/21 09:53:10;;;;;;;3.23;1.03;;;15.20;99.90;;;;;;5004846;28;20205;-68
2021/05/21 09:55:40;;;;;;;3.17;1.23;;;15.20;99.90;;;;;;5004714;28;20220;-67
2021/05/21 09:58:07;;;;;;;1.57;1.17;;;15.30;99.90;;;;;;5006276;28;20217;-67
2021/05/21 10:00:34;;;;;;;3.13;0.90;;;15.50;99.90;;;;;;5002833;28;20229;-69
2021/05/21 10:03:03;;;;;;;0.77;0.50;;;15.80;99.90;;;;;;5001722;28;20209;-70
2021/05/21 10:05:29;;;;;;;1.37;0.93;;;16.40;99.90;;;;;;4999712;28;20231;-70
2021/05/21 10:07:56;;;;;;;6.37;2.17;;;16.50;99.90;;;;;;5002642;28;20209;-69
2021/05/21 10:10:25;;;;;;;3.17;0.77;;;17.00;99.90;;;;;;5002804;28;20197;-67
2021/05/21 10:12:53;;;;;;;2.33;0.97;;;17.50;99.90;;;;;;5003378;28;20208;-68
2021/05/21 10:15:19;;;;;;;3.97;0.63;;;17.90;99.90;;;;;;5001674;28;20580;-69
2021/05/21 10:17:48;;;;;;;8.40;0.77;;;18.30;99.90;;;;;;5000314;28;20314;-69
2021/05/21 10:20:17;;;;;;;0.27;0.20;;;18.90;99.90;;;;;;5004657;28;20205;-69
2021/05/21 10:22:46;;;;;;;0.63;0.53;;;19.10;99.90;;;;;;5004101;28;20236;-71
2021/05/21 10:25:22;;;;;;;5.27;1.17;;;19.30;99.90;;;;;;5006606;28;20670;-68
2021/05/21 10:27:53;;;;;;;0.80;0.27;;;18.50;99.90;;;;;;5003433;28;20900;-68
2021/05/21 10:30:22;;;;;;;0.10;0.10;;;17.70;99.90;;;;;;5002309;28;20201;-67
2021/05/21 10:32:49;;;;;;;0.80;0.80;;;17.70;99.90;;;;;;5003867;28;20418;-68
2021/05/21 10:35:21;;;;;;;0.77;0.40;;;18.30;99.90;;;;;;5002123;28;20255;-72
2021/05/21 10:37:48;;;;;;;2.77;0.30;;;17.90;99.90;;;;;;5001906;28;20232;-66
2021/05/21 10:40:23;;;;;;;1.17;0.63;;;17.50;99.90;;;;;;5001809;28;20251;-68
2021/05/21 10:42:52;;;;;;;1.80;1.10;;;17.90;99.90;;;;;;4999319;28;20211;-65
2021/05/21 10:45:21;;;;;;;2.90;0.53;;;17.50;99.90;;;;;;5002656;28;22144;-68
2021/05/21 10:47:56;;;;;;;3.47;1.00;;;16.80;99.90;;;;;;4999634;28;20209;-68
2021/05/21 10:50:23;;;;;;;2.20;1.13;;;16.40;99.90;;;;;;5003752;28;20267;-66
2021/05/21 10:52:52;;;;;;;6.30;0.90;;;16.00;99.90;;;;;;5002162;28;20208;-70
2021/05/21 10:55:20;;;;;;;1.23;1.13;;;15.60;99.90;;;;;;5003449;28;20193;-68
2021/05/21 10:58:00;;;;;;;1.03;0.80;;;15.00;99.90;;;;;;5001496;28;20808;-70
2021/05/21 11:00:27;;;;;;;5.50;1.53;;;13.90;99.90;;;;;;5002096;28;20464;-73
2021/05/21 11:02:55;;;;;;;2.47;0.20;;;13.10;99.90;;;;;;5003128;28;20205;-68
2021/05/21 11:05:24;;;;;;;0.00;0.00;;;12.40;99.90;;;;;;5003958;28;20990;-69
2021/05/21 11:07:55;;;;;;;0.00;0.00;;;12.10;99.90;;;;;;4998198;28;20217;-70
2021/05/21 11:10:41;;;;;;;0.00;0.00;;;11.90;99.90;;;;;;5006099;28;20189;-69
2021/05/21 11:13:12;;;;;;;0.00;0.00;;;12.80;99.90;;;;;;4998452;28;20771;-68
2021/05/21 11:15:40;;;;;;;0.00;0.00;;;13.60;99.90;;;;;;5004068;28;20288;-68
2021/05/21 11:18:25;;;;;;;0.00;0.00;;;13.60;99.90;;;;;;5001410;28;20275;-70
2021/05/21 11:21:04;;;;;;;0.00;0.00;;;13.90;99.90;;;;;;5004720;28;20204;-68
2021/05/21 11:23:37;;;;;;;0.00;0.00;;;14.20;99.90;;;;;;4997964;28;20240;-68
2021/05/21 11:26:06;;;;;;;0.00;0.00;;;14.00;99.90;;;;;;4998673;28;20279;-70
2021/05/21 11:28:39;;;;;;;0.00;0.00;;;13.60;99.90;;;;;;4999752;28;20205;-69
2021/05/21 11:31:09;;;;;;;0.00;0.00;;;13.10;99.90;;;;;;4998662;28;20201;-67
2021/05/21 11:33:35;;;;;;;0.00;0.00;;;12.60;99.90;;;;;;5002099;28;20220;-69
2021/05/21 11:36:05;;;;;;;0.00;0.00;;;12.30;99.90;;;;;;5002212;28;20874;-67
2021/05/21 11:38:32;;;;;;;0.00;0.00;;;12.20;99.90;;;;;;5000339;28;20233;-66
2021/05/21 11:40:58;;;;;;;0.00;0.00;;;12.20;99.90;;;;;;5001960;28;20201;-68
2021/05/21 11:43:25;;;;;;;0.00;0.00;;;12.40;99.90;;;;;;5002640;28;20201;-66
2021/05/21 11:45:54;;;;;;;0.00;0.00;;;12.30;99.90;;;;;;5006325;28;20204;-67
2021/05/21 11:48:31;;;;;;;0.00;0.00;;;12.20;99.90;;;;;;5005002;28;20267;-67
2021/05/21 11:50:58;;;;;;;0.00;0.00;;;12.30;99.90;;;;;;5005522;28;20200;-67
2021/05/21 11:53:24;;;;;;;0.40;0.30;;;12.60;99.90;;;;;;5006944;28;20208;-70
2021/05/21 11:55:51;;;;;;;2.30;0.50;;;12.90;99.90;;;;;;5003914;28;20197;-67
2021/05/21 11:58:22;;;;;;;4.37;1.07;;;13.70;99.90;;;;;;5004801;28;20240;-66
2021/05/21 12:00:58;;;;;;;1.80;0.30;;;14.40;99.90;;;;;;5002249;28;20208;-66
2021/05/21 12:03:31;;;;;;;0.73;0.40;;;15.00;99.90;;;;;;5008782;28;20196;-67
2021/05/21 12:05:57;;;;;;;2.90;0.70;;;15.20;99.90;;;;;;5009065;28;20227;-67
2021/05/21 12:08:27;;;;;;;0.17;0.17;;;15.60;99.90;;;;;;5007902;28;20701;-67
2021/05/21 12:10:57;;;;;;;9.73;0.20;;;16.10;99.90;;;;;;5007714;28;20286;-68
2021/05/21 12:13:28;;;;;;;0.87;0.60;;;16.40;99.90;;;;;;5009052;28;20204;-67
2021/05/21 12:16:08;;;;;;;2.93;1.00;;;16.70;99.90;;;;;;5011057;28;20201;-69
2021/05/21 12:18:36;;;;;;;2.73;1.17;;;16.80;99.90;;;;;;5009323;28;20611;-69
2021/05/21 12:21:02;;;;;;;17.73;2.10;;;16.90;99.90;;;;;;5006471;28;20274;-72
2021/05/21 12:23:35;;;;;;;11.00;0.67;;;17.50;99.90;;;;;;5009715;28;20251;-70
2021/05/21 12:26:03;;;;;;;1.00;0.50;;;18.20;99.90;;;;;;5008184;28;20288;-74
2021/05/21 12:28:30;;;;;;;1.57;1.13;;;18.40;99.90;;;;;;5006810;28;20212;-73
2021/05/21 12:31:02;;;;;;;0.73;0.60;;;18.80;99.90;;;;;;5009221;28;20197;-66
2021/05/21 12:33:31;;;;;;;0.87;0.20;;;18.50;99.90;;;;;;5008446;28;20205;-67
2021/05/21 12:36:04;;;;;;;8.87;1.17;;;18.30;99.90;;;;;;5009296;28;20216;-67
2021/05/21 12:38:31;;;;;;;1.63;0.30;;;18.00;99.90;;;;;;5007460;28;20291;-67
2021/05/21 12:40:58;;;;;;;7.03;1.07;;;18.00;99.90;;;;;;5005922;28;20205;-67
2021/05/21 12:43:27;;;;;;;0.10;0.10;;;18.00;99.90;;;;;;5008588;28;20654;-68
2021/05/21 12:46:03;;;;;;;1.47;1.30;;;18.30;99.90;;;;;;5007779;28;20208;-67
2021/05/21 12:48:38;;;;;;;0.80;0.80;;;18.30;99.90;;;;;;4999583;28;20200;-67
2021/05/21 12:51:14;;;;;;;14.67;0.60;;;18.10;99.90;;;;;;5002853;28;20203;-68